Time;durP1;ratioP1;P1;durP2;ratioP2;P2;SDS_P1;SDS_P2;PMS_P1;PMS_P2;Temp;Humidity;BMP_temperature;BMP_pressure;BME280_temperature;BME280_humidity;BME280_pressure;Samples;Min_cycle;Max_cycle;Signal;HPM_P1;HPM_P2
2023/07/24 00:01:18;;;;;;;3.25;2.08;;;19.70;99.90;;;;;;5021930;28;20037;-89
2023/07/24 00:03:44;;;;;;;3.63;2.33;;;19.70;99.90;;;;;;5005079;28;20044;-90
2023/07/24 00:06:10;;;;;;;3.90;2.30;;;19.70;99.90;;;;;;5005058;28;20029;-90
2023/07/24 00:08:36;;;;;;;4.03;2.28;;;19.70;99.90;;;;;;5038323;28;20040;-90
2023/07/24 00:11:06;;;;;;;4.25;2.20;;;19.70;99.90;;;;;;5005566;28;20367;-88
2023/07/24 00:13:32;;;;;;;4.05;2.03;;;19.70;99.90;;;;;;5021918;28;20070;-90
2023/07/24 00:15:58;;;;;;;2.75;2.03;;;19.80;99.90;;;;;;5005830;28;20029;-89
2023/07/24 00:18:23;;;;;;;3.83;2.28;;;19.80;99.90;;;;;;5021568;28;20025;-90
2023/07/24 00:20:49;;;;;;;3.03;1.85;;;19.70;99.90;;;;;;5021303;28;20056;-90
2023/07/24 00:23:15;;;;;;;3.17;1.90;;;19.70;99.90;;;;;;5021200;28;20029;-89
2023/07/24 00:25:40;;;;;;;3.40;2.08;;;19.70;99.90;;;;;;5004813;28;20029;-89
2023/07/24 00:28:06;;;;;;;3.78;2.15;;;19.70;99.90;;;;;;5037414;28;20497;-89
2023/07/24 00:30:32;;;;;;;3.42;2.10;;;19.70;99.90;;;;;;5025522;28;20037;-90
2023/07/24 00:32:57;;;;;;;4.57;2.90;;;19.70;99.90;;;;;;5054219;28;20033;-89
2023/07/24 00:35:23;;;;;;;3.00;2.20;;;19.70;99.90;;;;;;5038822;28;20057;-91
2023/07/24 00:37:49;;;;;;;4.50;2.42;;;19.70;99.90;;;;;;5073626;28;20036;-91
2023/07/24 00:40:18;;;;;;;7.65;2.40;;;19.70;99.90;;;;;;5073719;28;20104;-91
2023/07/24 00:42:48;;;;;;;6.07;2.60;;;19.70;99.90;;;;;;5056959;28;20032;-93
2023/07/24 00:45:14;;;;;;;3.53;2.20;;;19.70;99.90;;;;;;5059166;28;20025;-92
2023/07/24 00:47:41;;;;;;;2.92;2.30;;;19.60;99.90;;;;;;5074142;28;20290;-92
2023/07/24 00:50:08;;;;;;;5.57;2.40;;;19.70;99.90;;;;;;5074914;28;20106;-92
2023/07/24 00:52:33;;;;;;;5.93;2.45;;;19.70;99.90;;;;;;5056617;28;20013;-92
2023/07/24 00:54:59;;;;;;;3.65;2.25;;;19.70;99.90;;;;;;5054609;28;20036;-92
2023/07/24 00:57:25;;;;;;;3.53;2.17;;;19.70;99.90;;;;;;5038790;28;20028;-93
2023/07/24 00:59:51;;;;;;;6.80;2.85;;;19.70;99.90;;;;;;5071786;28;20061;-93
2023/07/24 01:02:17;;;;;;;5.13;2.60;;;19.70;99.90;;;;;;5037852;28;20039;-92
2023/07/24 01:04:43;;;;;;;3.65;2.40;;;19.60;99.90;;;;;;5070927;28;20466;-92
2023/07/24 01:07:08;;;;;;;5.22;2.60;;;19.70;99.90;;;;;;5036772;28;20086;-92
2023/07/24 01:09:34;;;;;;;3.53;2.65;;;19.60;99.90;;;;;;5023275;28;20029;-89
2023/07/24 01:12:10;;;;;;;4.28;2.65;;;19.60;99.90;;;;;;5040925;28;20538;-88
2023/07/24 01:14:49;;;;;;;5.13;2.55;;;19.60;99.90;;;;;;5074940;28;20470;-89
2023/07/24 01:17:21;;;;;;;5.13;2.55;;;19.60;99.90;;;;;;5075525;28;20024;-88
2023/07/24 01:19:49;;;;;;;6.70;3.40;;;19.60;99.90;;;;;;5074495;28;20033;-90
2023/07/24 01:22:20;;;;;;;5.57;3.50;;;19.60;99.90;;;;;;5072759;28;20080;-89
2023/07/24 01:25:07;;;;;;;5.03;3.50;;;19.60;99.90;;;;;;5055872;28;20048;-92
2023/07/24 01:27:33;;;;;;;6.72;3.50;;;19.60;99.90;;;;;;5054253;28;20060;-92
2023/07/24 01:29:59;;;;;;;4.72;3.60;;;19.60;99.90;;;;;;5038903;28;20063;-91
2023/07/24 01:32:25;;;;;;;6.88;3.40;;;19.60;99.90;;;;;;5055066;28;20017;-91
2023/07/24 01:34:54;;;;;;;5.85;3.58;;;19.60;99.90;;;;;;5039769;28;20028;-92
2023/07/24 01:37:22;;;;;;;6.43;3.80;;;19.60;99.90;;;;;;5024525;28;20029;-92
2023/07/24 01:39:48;;;;;;;4.93;3.70;;;19.60;99.90;;;;;;5058953;28;20029;-92
2023/07/24 01:42:14;;;;;;;7.18;4.45;;;19.60;99.90;;;;;;5054624;28;20032;-89
2023/07/24 01:44:55;;;;;;;6.18;3.50;;;19.60;99.90;;;;;;5003794;28;20035;-89
2023/07/24 01:47:21;;;;;;;6.10;3.60;;;19.60;99.90;;;;;;5036444;28;20045;-90
2023/07/24 01:49:47;;;;;;;5.28;4.00;;;19.60;99.90;;;;;;5036494;28;20033;-90
2023/07/24 01:52:13;;;;;;;6.32;3.90;;;19.60;99.90;;;;;;5003569;28;20021;-89
2023/07/24 01:54:38;;;;;;;6.78;3.50;;;19.50;99.90;;;;;;5003611;28;20032;-89
2023/07/24 01:57:05;;;;;;;5.05;3.60;;;19.60;99.90;;;;;;5003477;28;20029;-89
2023/07/24 01:59:31;;;;;;;5.57;4.00;;;19.60;99.90;;;;;;5003540;28;20027;-88
2023/07/24 02:01:56;;;;;;;7.93;3.70;;;19.60;99.90;;;;;;5053083;28;20115;-89
2023/07/24 02:04:22;;;;;;;5.50;3.70;;;19.60;99.90;;;;;;5003240;28;20029;-89
2023/07/24 02:06:49;;;;;;;6.35;3.40;;;19.50;99.90;;;;;;5003451;28;20033;-89
2023/07/24 02:09:17;;;;;;;11.13;4.30;;;19.50;99.90;;;;;;5035974;28;20137;-89
2023/07/24 02:11:43;;;;;;;5.35;3.45;;;19.50;99.90;;;;;;5052626;28;20017;-89
2023/07/24 02:14:09;;;;;;;5.35;4.03;;;19.50;99.90;;;;;;5052774;28;20355;-90
2023/07/24 02:16:35;;;;;;;7.07;4.00;;;19.50;99.90;;;;;;5019708;28;20025;-89
2023/07/24 02:19:01;;;;;;;6.93;4.10;;;19.50;99.90;;;;;;5037237;28;20478;-88
2023/07/24 02:21:27;;;;;;;6.60;3.80;;;19.50;99.90;;;;;;5023577;28;20132;-90
2023/07/24 02:23:53;;;;;;;7.00;4.10;;;19.60;99.90;;;;;;5007352;28;20470;-89
2023/07/24 02:26:18;;;;;;;7.85;3.97;;;19.60;99.90;;;;;;5056394;28;20116;-90
2023/07/24 02:28:44;;;;;;;6.40;4.65;;;19.60;99.90;;;;;;5023374;28;20033;-91
2023/07/24 02:31:10;;;;;;;7.85;4.55;;;19.60;99.90;;;;;;5063144;28;20052;-89
2023/07/24 02:33:35;;;;;;;8.52;5.00;;;19.60;99.90;;;;;;5070232;28;20097;-93
2023/07/24 02:36:03;;;;;;;6.82;4.47;;;19.60;99.90;;;;;;5068592;28;20022;-93
2023/07/24 02:38:29;;;;;;;6.55;4.18;;;19.60;99.90;;;;;;5072882;28;20033;-92
2023/07/24 02:40:54;;;;;;;6.03;4.35;;;19.60;99.90;;;;;;5059589;28;20048;-92
2023/07/24 02:43:20;;;;;;;7.68;4.53;;;19.60;99.90;;;;;;5078293;28;20035;-92
2023/07/24 02:45:46;;;;;;;10.27;4.95;;;19.60;99.90;;;;;;5078906;28;20020;-93
2023/07/24 02:48:12;;;;;;;8.77;5.25;;;19.60;99.90;;;;;;5057914;28;20040;-90
2023/07/24 02:50:37;;;;;;;8.07;5.45;;;19.60;99.90;;;;;;5039540;28;20021;-90
2023/07/24 02:53:04;;;;;;;6.38;4.80;;;19.60;99.90;;;;;;5056259;28;20021;-90
2023/07/24 02:55:30;;;;;;;6.70;4.93;;;19.60;99.90;;;;;;5056265;28;20520;-90
2023/07/24 02:57:55;;;;;;;7.78;5.18;;;19.60;99.90;;;;;;5056229;28;20037;-89
2023/07/24 03:00:21;;;;;;;8.20;5.15;;;19.60;99.90;;;;;;5056042;28;20029;-88
2023/07/24 03:02:47;;;;;;;11.20;5.30;;;19.60;99.90;;;;;;5039210;28;20553;-89
2023/07/24 03:05:12;;;;;;;8.90;5.15;;;19.60;99.90;;;;;;5039336;28;20025;-91
2023/07/24 03:07:38;;;;;;;6.72;4.82;;;19.60;99.90;;;;;;5056149;28;20409;-93
2023/07/24 03:10:04;;;;;;;9.00;5.78;;;19.50;99.90;;;;;;5055929;28;20382;-92
2023/07/24 03:12:30;;;;;;;10.25;5.80;;;19.60;99.90;;;;;;5039614;28;20025;-92
2023/07/24 03:14:55;;;;;;;7.18;5.22;;;19.50;99.90;;;;;;5072579;28;20553;-93
2023/07/24 03:17:22;;;;;;;10.27;5.63;;;19.50;99.90;;;;;;5056164;28;20060;-92
2023/07/24 03:19:49;;;;;;;9.98;5.80;;;19.50;99.90;;;;;;5055897;28;20500;-92
2023/07/24 03:22:15;;;;;;;7.97;5.80;;;19.50;99.90;;;;;;5055853;28;20033;-89
2023/07/24 03:24:40;;;;;;;7.22;5.47;;;19.50;99.90;;;;;;5055229;28;20075;-89
2023/07/24 03:27:06;;;;;;;9.95;6.32;;;19.50;99.90;;;;;;5054837;28;20086;-89
2023/07/24 03:29:32;;;;;;;8.93;6.22;;;19.40;99.90;;;;;;5038311;28;20029;-89
2023/07/24 03:31:58;;;;;;;8.82;6.63;;;19.40;99.90;;;;;;5037185;28;20037;-88
2023/07/24 03:34:23;;;;;;;10.18;6.70;;;19.30;99.90;;;;;;5071951;28;20064;-88
2023/07/24 03:36:49;;;;;;;10.68;6.55;;;19.40;99.90;;;;;;5055035;28;20424;-88
2023/07/24 03:39:15;;;;;;;9.52;6.90;;;19.30;99.90;;;;;;5055156;28;20438;-94
2023/07/24 03:41:42;;;;;;;8.85;6.18;;;19.20;99.90;;;;;;5055313;28;20375;-93
2023/07/24 03:44:10;;;;;;;12.07;6.82;;;19.20;99.90;;;;;;5072030;28;20017;-93
2023/07/24 03:46:36;;;;;;;9.57;6.45;;;19.20;99.90;;;;;;5072015;28;20112;-93
2023/07/24 03:49:01;;;;;;;9.10;6.32;;;19.20;99.90;;;;;;5038303;28;20447;-92
2023/07/24 03:51:27;;;;;;;12.00;7.15;;;19.20;99.90;;;;;;5055134;28;20025;-93
2023/07/24 03:53:52;;;;;;;8.40;6.20;;;19.20;99.90;;;;;;5055065;28;20017;-94
2023/07/24 03:56:18;;;;;;;9.32;5.40;;;19.20;99.90;;;;;;5073150;28;20086;-93
2023/07/24 03:58:44;;;;;;;8.65;6.25;;;19.10;99.90;;;;;;5056181;28;20032;-93
2023/07/24 04:01:10;;;;;;;8.90;6.13;;;19.10;99.90;;;;;;5057016;28;20429;-93
2023/07/24 04:03:36;;;;;;;8.40;5.80;;;19.10;99.90;;;;;;5044632;28;20029;-93
2023/07/24 04:06:02;;;;;;;8.95;5.78;;;19.00;99.90;;;;;;5068810;28;20029;-92
2023/07/24 04:08:27;;;;;;;8.95;5.47;;;18.90;99.90;;;;;;5060578;28;20034;-94
2023/07/24 04:10:55;;;;;;;6.70;5.10;;;18.90;99.90;;;;;;5082661;28;20088;-94
2023/07/24 04:13:22;;;;;;;8.45;5.25;;;18.90;99.90;;;;;;5075303;28;20017;-94
2023/07/24 04:15:47;;;;;;;7.70;5.25;;;18.90;99.90;;;;;;5077094;28;20028;-94
2023/07/24 04:18:13;;;;;;;10.43;5.50;;;18.90;99.90;;;;;;5071847;28;20089;-93
2023/07/24 04:20:39;;;;;;;6.95;5.25;;;18.80;99.90;;;;;;5090415;28;20071;-93
2023/07/24 04:23:04;;;;;;;9.00;5.28;;;18.80;99.90;;;;;;5063958;28;20041;-94
2023/07/24 04:25:30;;;;;;;11.07;5.40;;;18.80;99.90;;;;;;5039653;28;20480;-93
2023/07/24 04:27:56;;;;;;;8.68;5.90;;;18.70;99.90;;;;;;5056093;28;20024;-93
2023/07/24 04:30:21;;;;;;;11.30;5.40;;;18.70;99.90;;;;;;5041439;28;20065;-91
2023/07/24 04:32:50;;;;;;;8.02;6.13;;;18.60;99.90;;;;;;5077628;28;20031;-93
2023/07/24 04:35:16;;;;;;;8.30;6.00;;;18.70;99.90;;;;;;5077820;28;20088;-94
2023/07/24 04:37:45;;;;;;;9.30;5.70;;;18.70;99.90;;;;;;5083257;28;20024;-92
2023/07/24 04:40:11;;;;;;;8.38;5.75;;;18.70;99.90;;;;;;5084237;28;20025;-93
2023/07/24 04:42:37;;;;;;;8.77;6.22;;;18.70;99.90;;;;;;5033234;28;20025;-92
2023/07/24 04:45:04;;;;;;;8.23;5.55;;;18.70;99.90;;;;;;5063735;28;20045;-93
2023/07/24 04:47:29;;;;;;;7.28;5.40;;;18.70;99.90;;;;;;5055120;28;20039;-93
2023/07/24 04:49:55;;;;;;;8.50;6.32;;;18.70;99.90;;;;;;5071424;28;20017;-93
2023/07/24 04:52:21;;;;;;;12.77;6.25;;;18.60;99.90;;;;;;5037972;28;20477;-94
2023/07/24 04:54:46;;;;;;;7.97;6.82;;;18.60;99.90;;;;;;5054760;28;20031;-94
2023/07/24 04:57:12;;;;;;;8.27;5.85;;;18.60;99.90;;;;;;5038244;28;20057;-93
2023/07/24 04:59:38;;;;;;;8.25;6.20;;;18.60;99.90;;;;;;5038280;28;20382;-93
2023/07/24 05:02:03;;;;;;;9.02;6.13;;;18.60;99.90;;;;;;5038493;28;20033;-94
2023/07/24 05:04:29;;;;;;;8.43;6.15;;;18.60;99.90;;;;;;5055051;28;20025;-94
2023/07/24 05:06:55;;;;;;;8.50;6.47;;;18.70;99.90;;;;;;5054246;28;20029;-88
2023/07/24 05:09:20;;;;;;;9.63;5.60;;;18.70;99.90;;;;;;5020185;28;20074;-89
2023/07/24 05:11:46;;;;;;;9.13;6.40;;;18.70;99.90;;;;;;5053711;28;20025;-89
2023/07/24 05:14:11;;;;;;;8.98;6.30;;;18.60;99.90;;;;;;5036750;28;20086;-88
2023/07/24 05:16:37;;;;;;;8.60;5.85;;;18.60;99.90;;;;;;5068958;28;20048;-88
2023/07/24 05:19:03;;;;;;;10.63;7.07;;;18.60;99.90;;;;;;5049505;28;20025;-94
2023/07/24 05:21:29;;;;;;;10.65;6.43;;;18.60;99.90;;;;;;5056538;28;20035;-93
2023/07/24 05:23:54;;;;;;;10.02;6.80;;;18.60;99.90;;;;;;5058930;28;20064;-93
2023/07/24 05:26:22;;;;;;;9.13;6.40;;;18.60;99.90;;;;;;5056725;28;20056;-90
2023/07/24 05:28:47;;;;;;;10.32;6.60;;;18.60;99.90;;;;;;5034910;28;20025;-91
2023/07/24 05:31:13;;;;;;;10.98;6.53;;;18.50;99.90;;;;;;5034955;28;20044;-91
2023/07/24 05:33:39;;;;;;;8.18;5.65;;;18.50;99.90;;;;;;5040982;28;20028;-92
2023/07/24 05:36:05;;;;;;;9.45;6.80;;;18.60;99.90;;;;;;5036585;28;20028;-87
2023/07/24 05:38:31;;;;;;;12.02;7.95;;;18.50;99.90;;;;;;5052240;28;20139;-88
2023/07/24 05:40:57;;;;;;;12.38;7.65;;;18.50;99.90;;;;;;5051218;28;20096;-87
2023/07/24 05:43:23;;;;;;;11.30;7.60;;;18.50;99.90;;;;;;5068127;28;20087;-88
2023/07/24 05:45:54;;;;;;;11.90;8.30;;;18.50;99.90;;;;;;5052394;28;20059;-88
2023/07/24 05:48:20;;;;;;;14.52;8.43;;;18.50;99.90;;;;;;5069347;28;20495;-88
2023/07/24 05:50:45;;;;;;;12.23;8.57;;;18.50;99.90;;;;;;5053493;28;20370;-88
2023/07/24 05:53:11;;;;;;;13.00;8.13;;;18.50;99.90;;;;;;5053025;28;20025;-87
2023/07/24 05:55:37;;;;;;;15.05;9.55;;;18.50;99.90;;;;;;5057833;28;20082;-86
2023/07/24 05:58:03;;;;;;;14.30;8.65;;;18.60;99.90;;;;;;5057629;28;20443;-87
2023/07/24 06:00:28;;;;;;;13.27;9.00;;;18.60;99.90;;;;;;5056693;28;20555;-87
2023/07/24 06:02:54;;;;;;;13.25;9.50;;;18.60;99.90;;;;;;5056588;28;20544;-87
2023/07/24 06:05:20;;;;;;;12.68;9.25;;;18.60;99.90;;;;;;5056930;28;20378;-87
2023/07/24 06:07:47;;;;;;;16.30;10.45;;;18.60;99.90;;;;;;5056959;28;20124;-87
2023/07/24 06:10:14;;;;;;;13.77;8.75;;;18.60;99.90;;;;;;5062254;28;20021;-93
2023/07/24 06:12:39;;;;;;;15.13;10.27;;;18.50;99.90;;;;;;5048430;28;20025;-93
2023/07/24 06:15:06;;;;;;;16.25;10.35;;;18.50;99.90;;;;;;5075247;28;20478;-93
2023/07/24 06:17:32;;;;;;;13.40;9.68;;;18.60;99.90;;;;;;5041606;28;20028;-93
2023/07/24 06:19:58;;;;;;;14.35;9.95;;;18.50;99.90;;;;;;5055894;28;20029;-93
2023/07/24 06:22:23;;;;;;;16.88;10.82;;;18.50;99.90;;;;;;5028244;28;20033;-93
2023/07/24 06:24:49;;;;;;;13.82;10.52;;;18.50;99.90;;;;;;5060189;28;20040;-88
2023/07/24 06:27:15;;;;;;;13.38;10.15;;;18.50;99.90;;;;;;5055355;28;20091;-88
2023/07/24 06:29:41;;;;;;;13.18;9.82;;;18.50;99.90;;;;;;5019824;28;20030;-88
2023/07/24 06:32:07;;;;;;;15.18;10.60;;;18.50;99.90;;;;;;5035977;28;20399;-88
2023/07/24 06:34:33;;;;;;;15.70;9.98;;;18.60;99.90;;;;;;5003510;28;20033;-89
2023/07/24 06:36:59;;;;;;;16.15;11.32;;;18.60;99.90;;;;;;5052896;28;20021;-88
2023/07/24 06:39:25;;;;;;;14.73;11.07;;;18.60;99.90;;;;;;5019578;28;20437;-88
2023/07/24 06:41:54;;;;;;;16.80;12.25;;;18.60;99.90;;;;;;5019815;28;20037;-87
2023/07/24 06:44:20;;;;;;;16.15;11.68;;;18.60;99.90;;;;;;5036410;28;20017;-87
2023/07/24 06:46:46;;;;;;;14.85;11.35;;;18.60;99.90;;;;;;5019242;28;20082;-87
2023/07/24 06:49:12;;;;;;;14.48;10.98;;;18.60;99.90;;;;;;5035579;28;20476;-87
2023/07/24 06:51:41;;;;;;;18.48;12.35;;;18.60;99.90;;;;;;5035667;28;20029;-87
2023/07/24 06:54:06;;;;;;;16.15;12.20;;;18.50;99.90;;;;;;5036497;28;20029;-87
2023/07/24 06:56:32;;;;;;;17.85;12.82;;;18.50;99.90;;;;;;5035582;28;20021;-87
2023/07/24 06:58:58;;;;;;;18.33;12.95;;;18.40;99.90;;;;;;5035659;28;20025;-87
2023/07/24 07:01:24;;;;;;;15.65;13.15;;;18.40;99.90;;;;;;5035570;28;20030;-87
2023/07/24 07:03:51;;;;;;;19.45;14.55;;;18.40;99.90;;;;;;5035944;28;20041;-87
2023/07/24 07:06:17;;;;;;;20.60;14.10;;;18.40;99.90;;;;;;5053957;28;20084;-86
2023/07/24 07:08:43;;;;;;;16.95;13.52;;;18.40;99.90;;;;;;5035743;28;20029;-87
2023/07/24 07:11:08;;;;;;;17.83;13.75;;;18.40;99.90;;;;;;5035439;28;20458;-87
2023/07/24 07:13:34;;;;;;;17.92;14.18;;;18.40;99.90;;;;;;5035317;28;20025;-87
2023/07/24 07:16:00;;;;;;;18.65;14.48;;;18.40;99.90;;;;;;5036442;28;20025;-93
2023/07/24 07:18:25;;;;;;;18.40;13.80;;;18.50;99.90;;;;;;5037500;28;20037;-93
2023/07/24 07:20:53;;;;;;;20.20;14.35;;;18.50;99.90;;;;;;5037613;28;20033;-93
2023/07/24 07:23:20;;;;;;;17.25;13.90;;;18.60;99.90;;;;;;5037626;28;20120;-93
2023/07/24 07:25:46;;;;;;;16.15;13.57;;;18.60;99.90;;;;;;5038675;28;20030;-92
2023/07/24 07:28:16;;;;;;;18.35;14.77;;;18.60;99.90;;;;;;5036316;28;20025;-92
2023/07/24 07:30:42;;;;;;;19.67;15.10;;;18.60;99.90;;;;;;5036106;28;20034;-93
2023/07/24 07:33:08;;;;;;;17.08;13.40;;;18.70;99.90;;;;;;5019666;28;20484;-86
2023/07/24 07:35:35;;;;;;;20.77;14.90;;;18.70;99.90;;;;;;5018485;28;20116;-87
2023/07/24 07:38:01;;;;;;;20.00;14.13;;;18.70;99.90;;;;;;5019070;28;20036;-87
2023/07/24 07:40:27;;;;;;;19.98;14.68;;;18.70;99.90;;;;;;5019213;28;20017;-88
2023/07/24 07:42:53;;;;;;;21.90;15.88;;;18.70;99.90;;;;;;5019446;28;20549;-88
2023/07/24 07:45:19;;;;;;;21.13;15.85;;;18.80;99.90;;;;;;5019251;28;20017;-88
2023/07/24 07:47:45;;;;;;;20.55;14.70;;;18.80;99.90;;;;;;5019239;28;20473;-88
2023/07/24 07:50:11;;;;;;;23.58;15.48;;;18.80;99.90;;;;;;5031320;28;20033;-94
2023/07/24 07:52:37;;;;;;;18.48;14.43;;;18.80;99.90;;;;;;5035149;28;20045;-92
2023/07/24 07:55:02;;;;;;;18.23;14.60;;;18.90;99.90;;;;;;5040347;28;20044;-92
2023/07/24 07:57:28;;;;;;;19.58;14.70;;;18.90;99.90;;;;;;5042545;28;20040;-93
2023/07/24 07:59:54;;;;;;;18.15;14.00;;;18.80;99.90;;;;;;5036084;28;20036;-93
2023/07/24 08:02:19;;;;;;;18.30;14.73;;;18.80;99.90;;;;;;5038130;28;20021;-91
2023/07/24 08:04:45;;;;;;;17.13;14.02;;;18.80;99.90;;;;;;5022673;28;20037;-88
2023/07/24 08:07:11;;;;;;;19.33;14.32;;;18.90;99.90;;;;;;5019004;28;20026;-87
2023/07/24 08:09:38;;;;;;;20.38;14.80;;;18.90;99.90;;;;;;5018029;28;20040;-88
2023/07/24 08:12:04;;;;;;;21.70;14.27;;;18.80;99.90;;;;;;5018635;28;20355;-88
2023/07/24 08:14:30;;;;;;;21.67;14.50;;;18.80;99.90;;;;;;5018560;28;20025;-88
2023/07/24 08:16:56;;;;;;;21.10;16.33;;;18.80;99.90;;;;;;5018142;28;20029;-88
2023/07/24 08:19:21;;;;;;;18.48;15.35;;;18.80;99.90;;;;;;5019180;28;20018;-92
2023/07/24 08:21:47;;;;;;;17.02;14.38;;;18.90;99.90;;;;;;5018807;28;20120;-88
2023/07/24 08:24:13;;;;;;;17.38;14.90;;;18.90;99.90;;;;;;5018235;28;20021;-88
2023/07/24 08:26:38;;;;;;;18.63;15.80;;;19.00;99.90;;;;;;5017420;28;20058;-88
2023/07/24 08:29:05;;;;;;;17.55;14.30;;;19.00;99.90;;;;;;5034131;28;20033;-89
2023/07/24 08:31:31;;;;;;;16.90;13.90;;;19.00;99.90;;;;;;5049603;28;20102;-88
2023/07/24 08:33:56;;;;;;;18.30;14.23;;;19.10;99.90;;;;;;5054249;28;20103;-88
2023/07/24 08:36:22;;;;;;;16.23;13.93;;;19.10;99.90;;;;;;5054156;28;20025;-88
2023/07/24 08:38:48;;;;;;;15.30;11.77;;;19.20;99.90;;;;;;5055158;28;20028;-88
2023/07/24 08:41:14;;;;;;;15.98;11.90;;;19.10;99.90;;;;;;5054016;28;20029;-88
2023/07/24 08:43:42;;;;;;;15.13;11.85;;;19.10;99.90;;;;;;5055222;28;20022;-88
2023/07/24 08:46:09;;;;;;;12.82;11.30;;;19.20;99.90;;;;;;5054834;28;20024;-88
2023/07/24 08:48:40;;;;;;;17.40;11.60;;;19.20;99.90;;;;;;5054831;28;20579;-87
2023/07/24 08:51:08;;;;;;;14.88;11.18;;;19.20;99.90;;;;;;5054191;28;20466;-87
2023/07/24 08:53:38;;;;;;;15.95;12.18;;;19.20;99.90;;;;;;5054688;28;20087;-88
2023/07/24 08:56:05;;;;;;;15.02;12.02;;;19.30;99.90;;;;;;5055743;28;20024;-90
2023/07/24 08:58:31;;;;;;;15.52;12.75;;;19.30;99.90;;;;;;5056387;28;20025;-88
2023/07/24 09:00:57;;;;;;;15.93;13.52;;;19.30;99.90;;;;;;5054246;28;20021;-88
2023/07/24 09:03:23;;;;;;;13.30;11.95;;;19.40;99.90;;;;;;5053798;28;20039;-88
2023/07/24 09:05:49;;;;;;;16.48;12.50;;;19.40;99.90;;;;;;5053755;28;20058;-88
2023/07/24 09:08:15;;;;;;;15.70;12.80;;;19.40;99.90;;;;;;5053649;28;20029;-88
2023/07/24 09:10:41;;;;;;;13.25;11.85;;;19.50;99.90;;;;;;5053927;28;20029;-89
2023/07/24 09:13:07;;;;;;;14.40;12.00;;;19.60;99.90;;;;;;5055217;28;20051;-92
2023/07/24 09:15:44;;;;;;;13.13;11.32;;;19.70;99.90;;;;;;5054638;28;20084;-93
2023/07/24 09:18:11;;;;;;;14.30;11.73;;;19.80;99.90;;;;;;5054822;28;20025;-93
2023/07/24 09:20:42;;;;;;;13.13;11.73;;;19.80;99.90;;;;;;5054343;28;20025;-93
2023/07/24 09:23:09;;;;;;;15.48;11.30;;;19.90;99.90;;;;;;5054665;28;20047;-93
2023/07/24 09:25:36;;;;;;;13.93;10.70;;;20.00;99.90;;;;;;5053945;28;20116;-91
2023/07/24 09:28:13;;;;;;;19.02;11.43;;;20.00;99.90;;;;;;5054329;28;20033;-92
2023/07/24 09:30:39;;;;;;;14.88;10.32;;;20.00;99.90;;;;;;5053977;28;20021;-94
2023/07/24 09:33:05;;;;;;;11.55;9.23;;;20.10;99.90;;;;;;5037596;28;20074;-92
2023/07/24 09:35:32;;;;;;;12.77;9.70;;;20.10;99.90;;;;;;5038022;28;20017;-93
2023/07/24 09:38:08;;;;;;;12.77;10.55;;;20.10;99.90;;;;;;5040759;28;20128;-91
2023/07/24 09:40:45;;;;;;;13.40;10.48;;;20.20;99.90;;;;;;5042693;28;20031;-92
2023/07/24 09:43:16;;;;;;;12.88;10.10;;;20.20;99.90;;;;;;5041376;28;20021;-91
2023/07/24 09:45:44;;;;;;;11.55;9.40;;;20.30;99.90;;;;;;5038676;28;20037;-88
2023/07/24 09:48:14;;;;;;;11.02;8.80;;;20.30;99.90;;;;;;5039819;28;20029;-88
2023/07/24 09:50:45;;;;;;;13.75;10.10;;;20.40;99.90;;;;;;5045075;28;20013;-88
2023/07/24 09:53:22;;;;;;;11.80;9.07;;;20.40;99.90;;;;;;5046133;28;20025;-88
2023/07/24 09:55:55;;;;;;;11.52;9.70;;;20.40;99.90;;;;;;5045140;28;20021;-88
2023/07/24 09:58:22;;;;;;;12.38;9.60;;;20.40;99.90;;;;;;5049005;28;20026;-88
2023/07/24 10:00:49;;;;;;;11.02;9.02;;;20.40;99.90;;;;;;5051256;28;20060;-88
2023/07/24 10:03:15;;;;;;;12.27;8.32;;;20.40;99.90;;;;;;5042383;28;20025;-88
2023/07/24 10:05:44;;;;;;;9.73;7.85;;;20.30;99.90;;;;;;5039064;28;20145;-88
2023/07/24 10:08:10;;;;;;;12.30;7.68;;;20.40;99.90;;;;;;5039759;28;20029;-88
2023/07/24 10:10:40;;;;;;;13.57;7.55;;;20.40;99.90;;;;;;5036415;28;20053;-89
2023/07/24 10:13:10;;;;;;;11.45;8.00;;;20.30;99.90;;;;;;5018967;28;20037;-89
2023/07/24 10:15:39;;;;;;;10.30;7.35;;;20.40;99.90;;;;;;5033764;28;20351;-89
2023/07/24 10:18:09;;;;;;;11.27;8.02;;;20.40;99.90;;;;;;5017340;28;20025;-89
2023/07/24 10:20:38;;;;;;;10.57;7.72;;;20.30;99.90;;;;;;5017706;28;20056;-89
2023/07/24 10:23:04;;;;;;;10.68;7.97;;;20.40;99.90;;;;;;5017144;28;20037;-89
2023/07/24 10:25:32;;;;;;;11.00;7.70;;;20.40;99.90;;;;;;5017540;28;20034;-88
2023/07/24 10:28:10;;;;;;;12.60;7.78;;;20.40;99.90;;;;;;5017971;28;20541;-89
2023/07/24 10:30:41;;;;;;;9.02;7.50;;;20.40;99.90;;;;;;5017720;28;20022;-89
2023/07/24 10:33:10;;;;;;;11.10;7.10;;;20.40;99.90;;;;;;5034935;28;20025;-92
2023/07/24 10:35:44;;;;;;;15.65;8.35;;;20.40;99.90;;;;;;5037670;28;20477;-92
2023/07/24 10:38:11;;;;;;;13.23;7.93;;;20.40;99.90;;;;;;5038410;28;20025;-93
2023/07/24 10:40:37;;;;;;;12.18;7.80;;;20.40;99.90;;;;;;5056374;28;20079;-91
2023/07/24 10:43:06;;;;;;;12.90;8.25;;;20.40;99.90;;;;;;5040076;28;20025;-88
2023/07/24 10:45:48;;;;;;;12.82;8.05;;;20.30;99.90;;;;;;5040516;28;20033;-87
2023/07/24 10:48:16;;;;;;;10.52;7.95;;;20.30;99.90;;;;;;5058408;28;20056;-88
2023/07/24 10:50:46;;;;;;;10.05;7.97;;;20.30;99.90;;;;;;5024353;28;20094;-88
2023/07/24 10:53:15;;;;;;;14.03;8.03;;;20.40;99.90;;;;;;5040261;28;20017;-87
2023/07/24 10:55:42;;;;;;;12.32;8.70;;;20.40;99.90;;;;;;5045147;28;20256;-88
2023/07/24 10:58:08;;;;;;;10.98;8.15;;;20.40;99.90;;;;;;5041196;28;20029;-89
2023/07/24 11:00:34;;;;;;;10.20;8.88;;;20.30;99.90;;;;;;5050795;28;20036;-93
2023/07/24 11:03:01;;;;;;;14.57;9.15;;;20.30;99.90;;;;;;5045282;28;20025;-91
2023/07/24 11:05:27;;;;;;;12.38;9.05;;;20.20;99.90;;;;;;5044347;28;20040;-89
2023/07/24 11:07:54;;;;;;;11.77;9.10;;;20.20;99.90;;;;;;5040403;28;20017;-88
2023/07/24 11:10:22;;;;;;;9.70;8.70;;;20.30;99.90;;;;;;5040660;28;20470;-89
2023/07/24 11:12:47;;;;;;;12.65;9.00;;;20.30;99.90;;;;;;5039278;28;20020;-91
2023/07/24 11:15:14;;;;;;;11.48;9.70;;;20.20;99.90;;;;;;5023775;28;20029;-93
2023/07/24 11:17:41;;;;;;;13.10;10.65;;;20.20;99.90;;;;;;5039612;28;20029;-92
2023/07/24 11:20:09;;;;;;;12.90;9.60;;;20.30;99.90;;;;;;5039365;28;20098;-92
2023/07/24 11:22:35;;;;;;;12.05;9.40;;;20.20;99.90;;;;;;5040047;28;20035;-91
2023/07/24 11:25:06;;;;;;;12.23;8.85;;;20.30;99.90;;;;;;5023432;28;20108;-87
2023/07/24 11:27:32;;;;;;;12.13;9.52;;;20.30;99.90;;;;;;5024445;28;20063;-88
2023/07/24 11:29:58;;;;;;;11.52;8.60;;;20.20;99.90;;;;;;5039148;28;20079;-88
2023/07/24 11:32:24;;;;;;;11.38;8.90;;;20.20;99.90;;;;;;5052258;28;20037;-88
2023/07/24 11:34:51;;;;;;;11.65;8.38;;;20.30;99.90;;;;;;5056000;28;20035;-93
2023/07/24 11:37:18;;;;;;;9.85;7.38;;;20.30;99.90;;;;;;5055915;28;20025;-92
2023/07/24 11:40:13;;;;;;;11.52;7.18;;;20.30;99.90;;;;;;5057020;28;20467;-93
2023/07/24 11:42:49;;;;;;;13.23;9.00;;;20.30;99.90;;;;;;5057189;28;20549;-88
2023/07/24 11:45:15;;;;;;;11.68;8.40;;;20.30;99.90;;;;;;5056668;28;20056;-88
2023/07/24 11:47:48;;;;;;;12.27;9.23;;;20.30;99.90;;;;;;5056059;28;20036;-89
2023/07/24 11:50:15;;;;;;;10.70;8.80;;;20.30;99.90;;;;;;5056925;28;20083;-89
2023/07/24 11:52:47;;;;;;;11.45;8.63;;;20.30;99.90;;;;;;5075959;28;20493;-89
2023/07/24 11:55:14;;;;;;;11.25;8.27;;;20.40;99.90;;;;;;5061832;28;20037;-88
2023/07/24 11:57:40;;;;;;;9.57;7.65;;;20.40;99.90;;;;;;5061815;28;20032;-88
2023/07/24 12:00:17;;;;;;;13.68;8.98;;;20.50;99.90;;;;;;5075128;28;20025;-91
2023/07/24 12:02:43;;;;;;;14.18;9.73;;;20.50;99.90;;;;;;5057049;28;20096;-92
2023/07/24 12:05:10;;;;;;;13.68;10.40;;;20.50;99.90;;;;;;5056900;28;20057;-91
2023/07/24 12:07:36;;;;;;;15.25;10.30;;;20.50;99.90;;;;;;5056718;28;20021;-90
2023/07/24 12:10:08;;;;;;;13.80;11.13;;;20.60;99.90;;;;;;5056358;28;20084;-92
2023/07/24 12:12:47;;;;;;;12.30;9.68;;;20.60;99.90;;;;;;5056033;28;20454;-91
2023/07/24 12:15:14;;;;;;;11.35;8.32;;;20.60;99.90;;;;;;5055842;28;20023;-88
2023/07/24 12:17:41;;;;;;;11.10;7.70;;;20.70;99.90;;;;;;5056263;28;20394;-88
2023/07/24 12:20:09;;;;;;;11.50;6.70;;;20.70;99.90;;;;;;5054746;28;20112;-88
2023/07/24 12:22:36;;;;;;;10.15;6.75;;;20.70;99.90;;;;;;5055554;28;20033;-88
2023/07/24 12:25:03;;;;;;;12.85;6.85;;;20.70;99.90;;;;;;5043448;28;20021;-88
2023/07/24 12:27:29;;;;;;;10.95;7.00;;;20.80;99.90;;;;;;5034460;28;20033;-88
2023/07/24 12:29:54;;;;;;;10.02;6.65;;;20.80;99.90;;;;;;5036274;28;20025;-88
2023/07/24 12:32:22;;;;;;;8.38;6.40;;;20.80;99.90;;;;;;5035909;28;20037;-93
2023/07/24 12:34:48;;;;;;;10.18;5.95;;;20.80;99.90;;;;;;5036237;28;20036;-91
2023/07/24 12:37:14;;;;;;;12.20;6.63;;;20.90;99.90;;;;;;5036530;28;20025;-93